createdAt,value
2023-03-02T00:01:37.417Z,5.72
2023-03-02T00:04:13.989Z,5.95
2023-03-02T00:06:42.446Z,4.93
2023-03-02T00:09:10.809Z,4.70
2023-03-02T00:12:38.534Z,4.72
2023-03-02T00:15:08.054Z,5.28
2023-03-02T00:17:37.588Z,4.63
2023-03-02T00:20:11.761Z,5.15
2023-03-02T00:22:40.986Z,5.70
2023-03-02T00:25:10.345Z,4.88
2023-03-02T00:32:09.089Z,5.20
2023-03-02T00:34:37.685Z,5.05
2023-03-02T00:38:30.944Z,5.60
2023-03-02T00:41:31.160Z,5.45
2023-03-02T00:43:59.552Z,5.90
2023-03-02T00:46:28.806Z,5.40
2023-03-02T00:52:59.486Z,6.28
2023-03-02T00:55:27.838Z,6.07
2023-03-02T00:58:38.595Z,6.28
2023-03-02T01:01:10.720Z,5.50
2023-03-02T01:03:39.559Z,5.72
2023-03-02T01:06:47.207Z,5.80
2023-03-02T01:09:15.650Z,5.50
2023-03-02T01:11:43.987Z,6.00
2023-03-02T01:14:12.448Z,5.93
2023-03-02T01:16:42.329Z,6.07
2023-03-02T01:19:10.893Z,6.22
2023-03-02T01:21:39.299Z,6.05
2023-03-02T01:24:08.273Z,5.75
2023-03-02T01:26:37.356Z,6.82
2023-03-02T01:29:06.302Z,5.93
2023-03-02T01:31:34.737Z,6.68
2023-03-02T01:34:04.541Z,6.10
2023-03-02T01:36:33.424Z,6.63
2023-03-02T01:39:02.095Z,7.28
2023-03-02T01:41:30.438Z,6.97
2023-03-02T01:43:58.875Z,7.07
2023-03-02T01:46:29.947Z,7.55
2023-03-02T01:49:02.723Z,6.70
2023-03-02T01:51:35.872Z,7.22
2023-03-02T01:54:09.922Z,7.32
2023-03-02T01:56:42.038Z,6.53
2023-03-02T01:59:14.581Z,6.85
2023-03-02T02:01:46.307Z,7.50
2023-03-02T02:04:15.979Z,6.07
2023-03-02T02:06:49.266Z,6.70
2023-03-02T02:09:20.748Z,7.00
2023-03-02T02:11:49.361Z,7.00
2023-03-02T02:14:18.176Z,6.80
2023-03-02T02:16:46.709Z,6.93
2023-03-02T02:19:27.963Z,7.72
2023-03-02T02:21:57.804Z,6.97
2023-03-02T02:24:32.530Z,6.63
2023-03-02T02:27:03.273Z,7.13
2023-03-02T02:29:34.349Z,7.72
2023-03-02T02:32:06.784Z,7.15
2023-03-02T02:34:41.386Z,7.88
2023-03-02T02:37:15.288Z,6.93
2023-03-02T02:39:48.054Z,6.70
2023-03-02T02:42:20.914Z,6.50
2023-03-02T02:44:49.753Z,6.60
2023-03-02T02:47:20.049Z,7.05
2023-03-02T02:49:51.282Z,7.65
2023-03-02T02:52:22.680Z,6.05
2023-03-02T02:54:53.557Z,6.80
2023-03-02T02:57:26.733Z,5.78
2023-03-02T02:59:59.309Z,6.15
2023-03-02T03:02:30.416Z,6.53
2023-03-02T03:05:03.420Z,5.93
2023-03-02T03:07:33.554Z,6.40
2023-03-02T03:10:10.095Z,6.25
2023-03-02T03:12:41.336Z,6.53
2023-03-02T03:15:11.072Z,5.88
2023-03-02T03:17:39.475Z,5.75
2023-03-02T03:20:09.591Z,5.82
2023-03-02T03:22:39.537Z,6.28
2023-03-02T03:25:08.696Z,6.68
2023-03-02T03:27:37.013Z,6.78
2023-03-02T03:30:08.041Z,7.13
2023-03-02T03:32:36.902Z,7.70
2023-03-02T03:35:08.689Z,7.45
2023-03-02T03:37:37.705Z,7.85
2023-03-02T03:40:07.455Z,8.75
2023-03-02T03:42:35.919Z,9.80
2023-03-02T03:45:08.649Z,9.63
2023-03-02T03:47:37.640Z,10.50
2023-03-02T03:50:07.358Z,9.85
2023-03-02T03:52:35.696Z,10.85
2023-03-02T03:55:06.055Z,11.75
2023-03-02T03:57:34.452Z,12.25
2023-03-02T04:00:06.117Z,12.27
2023-03-02T04:02:36.083Z,13.82
2023-03-02T04:05:06.720Z,14.32
2023-03-02T04:07:35.830Z,15.10
2023-03-02T04:10:05.700Z,15.13
2023-03-02T04:12:36.898Z,15.88
2023-03-02T04:15:06.996Z,17.48
2023-03-02T04:17:36.772Z,18.30
2023-03-02T04:20:07.721Z,19.40
2023-03-02T04:22:36.252Z,19.10
2023-03-02T04:25:05.197Z,20.77
2023-03-02T04:27:33.723Z,22.98
2023-03-02T04:30:03.061Z,23.77
2023-03-02T04:32:31.563Z,24.35
2023-03-02T04:35:01.983Z,26.17
2023-03-02T04:37:30.493Z,25.40
2023-03-02T04:39:59.085Z,26.23
2023-03-02T04:42:27.697Z,25.88
2023-03-02T04:44:56.002Z,26.45
2023-03-02T04:47:24.660Z,26.95
2023-03-02T04:49:54.792Z,29.13
2023-03-02T04:52:25.178Z,27.83
2023-03-02T04:54:53.531Z,30.65
2023-03-02T04:57:22.042Z,27.27
2023-03-02T04:59:50.533Z,29.63
2023-03-02T05:02:19.047Z,32.85
2023-03-02T05:04:47.914Z,32.60
2023-03-02T05:07:16.307Z,32.85
2023-03-02T05:09:46.164Z,32.35
2023-03-02T05:12:14.605Z,33.75
2023-03-02T05:14:45.462Z,34.83
2023-03-02T05:17:14.149Z,34.25
2023-03-02T05:19:43.624Z,35.00
2023-03-02T05:22:12.036Z,35.60
2023-03-02T05:24:40.409Z,35.58
2023-03-02T05:27:10.218Z,36.20
2023-03-02T05:29:38.722Z,36.03
2023-03-02T05:32:07.194Z,36.95
2023-03-02T05:34:36.068Z,38.80
2023-03-02T05:37:04.556Z,39.35
2023-03-02T05:39:33.826Z,40.72
2023-03-02T05:42:03.243Z,43.25
2023-03-02T05:44:33.193Z,41.33
2023-03-02T05:47:01.720Z,40.95
2023-03-02T05:49:30.171Z,38.75
2023-03-02T05:51:58.512Z,37.25
2023-03-02T05:54:27.072Z,39.72
2023-03-02T05:56:55.418Z,36.28
2023-03-02T05:59:23.793Z,38.10
2023-03-02T06:01:58.832Z,38.05
2023-03-02T06:04:27.337Z,38.50
2023-03-02T06:06:55.788Z,38.22
2023-03-02T06:09:24.205Z,39.50
2023-03-02T06:11:52.971Z,39.42
2023-03-02T06:14:21.355Z,39.28
2023-03-02T06:16:49.876Z,37.83
2023-03-02T06:19:19.837Z,37.58
2023-03-02T06:21:48.352Z,39.72
2023-03-02T06:24:17.175Z,40.92
2023-03-02T06:26:45.628Z,41.15
2023-03-02T06:29:14.036Z,44.47
2023-03-02T06:31:42.715Z,39.80
2023-03-02T06:34:11.060Z,41.60
2023-03-02T06:36:40.963Z,40.35
2023-03-02T06:39:15.754Z,39.83
2023-03-02T06:41:44.623Z,39.40
2023-03-02T06:44:13.398Z,38.70
2023-03-02T06:46:43.321Z,37.90
2023-03-02T06:49:14.177Z,40.47
2023-03-02T06:51:44.099Z,44.10
2023-03-02T06:54:12.597Z,43.20
2023-03-02T06:56:41.227Z,42.35
2023-03-02T06:59:09.658Z,43.03
2023-03-02T07:01:38.218Z,42.00
2023-03-02T07:04:06.840Z,39.05
2023-03-02T07:06:35.393Z,40.67
2023-03-02T07:09:05.646Z,40.78
2023-03-02T07:11:34.479Z,40.35
2023-03-02T07:14:03.375Z,39.95
2023-03-02T07:16:32.134Z,36.10
2023-03-02T07:19:00.575Z,37.53
2023-03-02T07:21:28.865Z,38.33
2023-03-02T07:23:57.547Z,37.75
2023-03-02T07:26:27.329Z,37.05
2023-03-02T07:28:55.706Z,35.97
2023-03-02T07:31:24.258Z,35.30
2023-03-02T07:33:52.586Z,34.03
2023-03-02T07:36:21.307Z,32.13
2023-03-02T07:38:49.832Z,29.40
2023-03-02T07:41:18.171Z,32.58
2023-03-02T07:43:47.994Z,30.83
2023-03-02T07:46:16.571Z,31.02
2023-03-02T07:48:44.935Z,34.30
2023-03-02T07:51:13.314Z,31.17
2023-03-02T07:53:42.667Z,29.75
2023-03-02T07:56:12.172Z,31.02
2023-03-02T07:58:40.685Z,29.30
2023-03-02T08:01:10.837Z,29.17
2023-03-02T08:03:39.500Z,24.38
2023-03-02T08:06:09.961Z,28.30
2023-03-02T08:08:39.192Z,25.77
2023-03-02T08:11:08.054Z,23.25
2023-03-02T08:13:36.518Z,27.08
2023-03-02T08:16:06.549Z,23.52
2023-03-02T08:18:37.595Z,24.35
2023-03-02T08:21:06.604Z,23.17
2023-03-02T08:23:35.032Z,27.17
2023-03-02T08:26:04.118Z,26.08
2023-03-02T08:28:32.496Z,21.50
2023-03-02T08:31:03.603Z,23.60
2023-03-02T08:33:32.646Z,26.42
2023-03-02T08:36:05.406Z,25.25
2023-03-02T08:38:34.558Z,24.35
2023-03-02T08:41:06.710Z,24.33
2023-03-02T08:43:36.053Z,27.35
2023-03-02T08:46:05.656Z,23.35
2023-03-02T08:48:34.442Z,24.38
2023-03-02T08:51:07.086Z,26.27
2023-03-02T08:53:39.593Z,25.40
2023-03-02T08:56:17.192Z,22.38
2023-03-02T08:58:45.710Z,19.35
2023-03-02T09:01:18.685Z,18.02
2023-03-02T09:03:47.750Z,18.98
2023-03-02T09:06:17.854Z,16.38
2023-03-02T09:08:46.645Z,12.88
2023-03-02T09:11:15.356Z,14.80
2023-03-02T09:13:44.246Z,16.63
2023-03-02T09:16:13.929Z,12.43
2023-03-02T09:18:42.586Z,15.68
2023-03-02T09:21:11.340Z,15.77
2023-03-02T09:23:41.282Z,14.00
2023-03-02T09:26:10.221Z,16.65
2023-03-02T09:28:39.895Z,17.70
2023-03-02T09:31:10.240Z,13.02
2023-03-02T09:33:39.047Z,12.20
2023-03-02T09:36:09.277Z,13.93
2023-03-02T09:38:37.861Z,10.07
2023-03-02T09:41:49.665Z,15.45
2023-03-02T09:44:45.450Z,9.98
2023-03-02T09:47:34.614Z,15.60
2023-03-02T09:50:16.060Z,12.68
2023-03-02T09:52:51.992Z,13.35
2023-03-02T09:55:24.785Z,12.88
2023-03-02T09:57:55.064Z,9.73
2023-03-02T10:00:28.966Z,8.30
2023-03-02T10:03:14.941Z,11.40
2023-03-02T10:05:47.275Z,8.50
2023-03-02T10:08:18.543Z,9.63
2023-03-02T10:10:50.385Z,11.73
2023-03-02T10:13:27.379Z,12.18
2023-03-02T10:16:13.498Z,12.10
2023-03-02T10:18:48.051Z,10.55
2023-03-02T10:21:23.827Z,10.52
2023-03-02T10:23:56.280Z,14.40
2023-03-02T10:26:28.262Z,13.50
2023-03-02T10:29:02.664Z,14.23
2023-03-02T10:31:32.809Z,12.40
2023-03-02T10:34:02.027Z,12.35
2023-03-02T10:36:34.163Z,10.68
2023-03-02T10:39:04.283Z,13.25
2023-03-02T10:41:35.520Z,14.95
2023-03-02T10:44:07.725Z,14.07
2023-03-02T10:46:44.456Z,15.95
2023-03-02T10:49:26.894Z,13.68
2023-03-02T10:52:03.496Z,12.43
2023-03-02T10:54:33.948Z,10.65
2023-03-02T10:57:05.123Z,8.80
2023-03-02T10:59:43.318Z,11.70
2023-03-02T11:02:18.598Z,12.40
2023-03-02T11:04:47.352Z,12.15
2023-03-02T11:07:19.887Z,14.43
2023-03-02T11:10:03.191Z,13.43
2023-03-02T11:12:33.088Z,12.88
2023-03-02T11:15:23.672Z,11.77
2023-03-02T11:17:58.215Z,12.65
2023-03-02T11:20:31.719Z,13.57
2023-03-02T11:23:22.334Z,12.55
2023-03-02T11:25:55.294Z,12.23
2023-03-02T11:28:36.155Z,12.15
2023-03-02T11:31:12.180Z,12.07
2023-03-02T11:33:47.642Z,10.70
2023-03-02T11:36:19.939Z,11.50
2023-03-02T11:38:51.214Z,11.40
2023-03-02T11:41:30.016Z,10.45
2023-03-02T11:44:02.094Z,9.75
2023-03-02T11:46:33.964Z,10.70
2023-03-02T11:49:06.870Z,9.05
2023-03-02T11:51:39.104Z,7.97
2023-03-02T11:54:24.046Z,10.02
2023-03-02T11:56:52.681Z,9.90
2023-03-02T11:59:25.751Z,12.43
2023-03-02T12:01:59.779Z,8.05
2023-03-02T12:04:34.039Z,10.68
2023-03-02T12:07:04.371Z,8.55
2023-03-02T12:09:39.562Z,10.90
2023-03-02T12:12:33.804Z,9.60
2023-03-02T12:15:03.370Z,11.15
2023-03-02T12:17:35.210Z,10.23
2023-03-02T12:20:24.758Z,11.40
2023-03-02T12:22:53.163Z,8.95
2023-03-02T12:25:38.228Z,7.95
2023-03-02T12:28:06.592Z,8.13
2023-03-02T12:30:35.047Z,12.20
2023-03-02T12:33:18.927Z,8.77
2023-03-02T12:35:49.999Z,11.52
2023-03-02T12:38:29.645Z,10.90
2023-03-02T12:41:17.711Z,8.82
2023-03-02T12:43:55.436Z,7.70
2023-03-02T12:46:32.564Z,8.00
2023-03-02T12:49:19.927Z,9.30
2023-03-02T12:51:52.247Z,9.43
2023-03-02T12:54:22.272Z,7.93
2023-03-02T12:57:02.782Z,10.70
2023-03-02T12:59:31.477Z,9.52
2023-03-02T13:02:12.157Z,8.30
2023-03-02T13:04:42.370Z,6.80
2023-03-02T13:07:18.661Z,10.93
2023-03-02T13:09:56.690Z,11.13
2023-03-02T13:12:29.438Z,11.27
2023-03-02T13:14:59.923Z,8.30
2023-03-02T13:17:31.414Z,10.60
2023-03-02T13:20:04.252Z,7.15
2023-03-02T13:22:32.895Z,8.43
2023-03-02T13:25:03.727Z,8.57
2023-03-02T13:27:33.961Z,7.38
2023-03-02T13:30:11.345Z,9.35
2023-03-02T13:32:43.243Z,8.73
2023-03-02T13:35:24.380Z,8.20
2023-03-02T13:38:02.540Z,7.15
2023-03-02T13:40:40.810Z,7.05
2023-03-02T13:43:38.533Z,6.10
2023-03-02T13:46:25.743Z,7.47
2023-03-02T13:49:13.967Z,6.82
2023-03-02T13:51:46.536Z,8.90
2023-03-02T13:54:22.241Z,5.63
2023-03-02T13:56:53.570Z,7.43
2023-03-02T13:59:23.246Z,7.85
2023-03-02T14:01:52.304Z,7.60
2023-03-02T14:04:23.521Z,7.18
2023-03-02T14:06:54.969Z,8.07
2023-03-02T14:09:24.090Z,7.18
2023-03-02T14:11:54.525Z,5.78
2023-03-02T14:14:25.996Z,8.18
2023-03-02T14:16:54.551Z,8.27
2023-03-02T14:19:23.072Z,6.20
2023-03-02T14:21:52.874Z,6.28
2023-03-02T14:24:21.476Z,7.05
2023-03-02T14:26:50.525Z,5.43
2023-03-02T14:29:24.340Z,4.45
2023-03-02T14:31:55.005Z,6.00
2023-03-02T14:34:23.460Z,5.72
2023-03-02T14:36:55.777Z,8.00
2023-03-02T14:39:31.761Z,8.35
2023-03-02T14:42:00.396Z,6.43
2023-03-02T14:44:28.985Z,6.20
2023-03-02T14:46:58.457Z,5.57
2023-03-02T14:49:26.945Z,5.68
2023-03-02T14:52:04.080Z,7.13
2023-03-02T14:54:39.703Z,5.35
2023-03-02T14:57:18.551Z,5.70
2023-03-02T14:59:47.081Z,5.07
2023-03-02T15:02:24.879Z,5.97
2023-03-02T15:04:56.561Z,5.45
2023-03-02T15:07:28.115Z,6.43
2023-03-02T15:09:57.411Z,5.28
2023-03-02T15:12:26.061Z,5.20
2023-03-02T15:14:55.025Z,7.75
2023-03-02T15:17:23.504Z,5.55
2023-03-02T15:19:52.232Z,6.05
2023-03-02T15:22:20.650Z,5.60
2023-03-02T15:24:50.583Z,6.57
2023-03-02T15:27:19.280Z,5.15
2023-03-02T15:29:48.673Z,5.30
2023-03-02T15:32:17.544Z,5.38
2023-03-02T15:34:46.273Z,5.28
2023-03-02T15:37:14.687Z,5.13
2023-03-02T15:39:44.516Z,4.97
2023-03-02T15:42:14.309Z,4.35
2023-03-02T15:44:43.024Z,4.95
2023-03-02T15:47:12.503Z,5.30
2023-03-02T15:49:41.483Z,3.40
2023-03-02T15:52:09.964Z,5.57
2023-03-02T15:54:38.297Z,5.25
2023-03-02T15:57:06.767Z,4.32
2023-03-02T15:59:36.532Z,4.72
2023-03-02T16:02:06.340Z,5.10
2023-03-02T16:04:35.756Z,6.05
2023-03-02T16:07:04.635Z,6.45
2023-03-02T16:09:33.138Z,8.07
2023-03-02T16:12:01.682Z,6.32
2023-03-02T16:14:30.174Z,5.13
2023-03-02T16:16:59.926Z,5.82
2023-03-02T16:19:28.543Z,6.20
2023-03-02T16:21:56.975Z,7.82
2023-03-02T16:24:25.718Z,6.75
2023-03-02T16:26:54.928Z,4.43
2023-03-02T16:29:24.202Z,6.75
2023-03-02T16:31:52.841Z,6.35
2023-03-02T16:34:22.884Z,7.82
2023-03-02T16:36:51.466Z,5.43
2023-03-02T16:39:19.848Z,8.90
2023-03-02T16:41:48.796Z,8.10
2023-03-02T16:44:17.404Z,7.07
2023-03-02T16:46:46.438Z,6.15
2023-03-02T16:49:15.820Z,5.78
2023-03-02T16:51:45.653Z,7.25
2023-03-02T16:54:19.479Z,6.25
2023-03-02T16:56:47.951Z,6.47
2023-03-02T16:59:16.845Z,6.55
2023-03-02T17:01:45.594Z,6.95
2023-03-02T17:04:14.123Z,5.55
2023-03-02T17:07:02.673Z,7.18
2023-03-02T17:09:31.775Z,6.85
2023-03-02T17:12:00.347Z,6.35
2023-03-02T17:14:29.553Z,8.50
2023-03-02T17:16:58.322Z,7.68
2023-03-02T17:19:29.536Z,6.43
2023-03-02T17:21:59.932Z,7.90
2023-03-02T17:24:28.880Z,8.05
2023-03-02T17:26:57.869Z,7.78
2023-03-02T17:29:26.593Z,8.43
2023-03-02T17:31:55.528Z,8.77
2023-03-02T17:34:24.091Z,8.10
2023-03-02T17:36:52.576Z,10.27
2023-03-02T17:39:22.536Z,8.43
2023-03-02T17:41:50.905Z,7.95
2023-03-02T17:44:19.239Z,10.88
2023-03-02T17:46:48.124Z,10.60
2023-03-02T17:49:16.553Z,9.20
2023-03-02T17:51:44.892Z,8.65
2023-03-02T17:54:13.465Z,9.85
2023-03-02T17:56:43.242Z,8.88
2023-03-02T17:59:11.911Z,13.10
2023-03-02T18:01:41.090Z,10.52
2023-03-02T18:04:09.534Z,9.80
2023-03-02T18:06:38.014Z,11.82
2023-03-02T18:09:06.618Z,10.27
2023-03-02T18:11:35.348Z,7.97
2023-03-02T18:14:05.603Z,7.50
2023-03-02T18:16:35.547Z,9.98
2023-03-02T18:19:04.537Z,9.68
2023-03-02T18:21:34.585Z,8.27
2023-03-02T18:24:04.094Z,9.70
2023-03-02T18:26:32.574Z,7.93
2023-03-02T18:29:00.894Z,10.75
2023-03-02T18:31:31.505Z,10.93
2023-03-02T18:34:00.042Z,8.80
2023-03-02T18:36:28.685Z,11.68
2023-03-02T18:38:57.194Z,13.27
2023-03-02T18:41:26.240Z,12.00
2023-03-02T18:43:54.605Z,11.32
2023-03-02T18:46:25.104Z,12.07
2023-03-02T18:48:55.947Z,12.48
2023-03-02T18:51:25.804Z,13.07
2023-03-02T18:53:55.034Z,14.75
2023-03-02T18:56:23.752Z,12.50
2023-03-02T18:58:52.638Z,13.75
2023-03-02T19:01:22.396Z,14.02
2023-03-02T19:03:50.838Z,13.63
2023-03-02T19:06:20.650Z,13.20
2023-03-02T19:08:49.540Z,14.07
2023-03-02T19:11:17.922Z,14.98
2023-03-02T19:13:46.270Z,15.18
2023-03-02T19:16:16.739Z,14.68
2023-03-02T19:18:46.572Z,14.40
2023-03-02T19:21:15.324Z,15.73
2023-03-02T19:23:46.633Z,13.00
2023-03-02T19:26:15.292Z,16.85
2023-03-02T19:28:43.684Z,16.95
2023-03-02T19:31:12.938Z,15.80
2023-03-02T19:33:42.428Z,16.95
2023-03-02T19:36:11.174Z,17.05
2023-03-02T19:38:41.677Z,18.10
2023-03-02T19:41:13.116Z,17.58
2023-03-02T19:43:42.856Z,17.95
2023-03-02T19:46:12.578Z,18.20
2023-03-02T19:48:41.168Z,18.55
2023-03-02T19:51:11.295Z,17.77
2023-03-02T19:53:41.211Z,18.27
2023-03-02T19:56:14.427Z,19.48
2023-03-02T19:58:50.796Z,18.85
2023-03-02T20:01:25.103Z,18.05
2023-03-02T20:03:55.014Z,19.98
2023-03-02T20:06:25.660Z,20.48
2023-03-02T20:08:54.617Z,20.38
2023-03-02T20:11:25.264Z,19.30
2023-03-02T20:13:54.019Z,19.48
2023-03-02T20:16:23.525Z,15.52
2023-03-02T20:18:52.359Z,18.15
2023-03-02T20:21:21.339Z,18.77
2023-03-02T20:23:50.670Z,18.95
2023-03-02T20:26:19.214Z,19.83
2023-03-02T20:28:49.614Z,19.55
2023-03-02T20:31:19.312Z,20.73
2023-03-02T20:33:50.594Z,20.48
2023-03-02T20:36:27.697Z,19.67
2023-03-02T20:38:59.014Z,21.27
2023-03-02T20:41:27.565Z,19.63
2023-03-02T20:43:57.552Z,18.77
2023-03-02T20:46:29.663Z,20.67
2023-03-02T20:48:59.004Z,19.40
2023-03-02T20:51:28.579Z,19.52
2023-03-02T20:53:58.040Z,17.88
2023-03-02T20:56:26.690Z,18.65
2023-03-02T20:58:56.730Z,19.67
2023-03-02T21:01:26.109Z,20.60
2023-03-02T21:03:54.557Z,19.92
2023-03-02T21:06:24.035Z,20.38
2023-03-02T21:08:52.670Z,20.15
2023-03-02T21:11:22.793Z,19.33
2023-03-02T21:13:51.293Z,20.25
2023-03-02T21:16:24.380Z,16.95
2023-03-02T21:18:54.817Z,19.25
2023-03-02T21:21:35.606Z,20.08
2023-03-02T21:24:09.813Z,20.27
2023-03-02T21:26:38.383Z,19.48
2023-03-02T21:29:09.523Z,19.15
2023-03-02T21:31:39.452Z,19.02
2023-03-02T21:34:08.320Z,20.17
2023-03-02T21:36:36.853Z,19.40
2023-03-02T21:39:06.832Z,19.48
2023-03-02T21:41:35.815Z,18.55
2023-03-02T21:44:05.572Z,18.45
2023-03-02T21:46:35.958Z,20.60
2023-03-02T21:49:05.768Z,20.42
2023-03-02T21:51:34.248Z,19.20
2023-03-02T21:54:04.055Z,19.23
2023-03-02T21:56:32.841Z,20.33
2023-03-02T21:59:01.251Z,19.55
2023-03-02T22:01:32.869Z,20.08
2023-03-02T22:04:02.121Z,20.63
2023-03-02T22:06:34.035Z,20.15
2023-03-02T22:09:03.394Z,21.08
2023-03-02T22:11:33.819Z,20.75
2023-03-02T22:14:08.356Z,22.45
2023-03-02T22:16:39.583Z,21.77
2023-03-02T22:19:24.981Z,20.15
2023-03-02T22:21:55.787Z,20.48
2023-03-02T22:24:26.801Z,20.95
2023-03-02T22:27:00.433Z,21.40
2023-03-02T22:29:30.439Z,22.20
2023-03-02T22:32:15.378Z,21.08
2023-03-02T22:34:45.672Z,23.25
2023-03-02T22:37:17.942Z,22.65
2023-03-02T22:39:47.139Z,24.63
2023-03-02T22:42:18.044Z,23.95
2023-03-02T22:44:54.291Z,24.65
2023-03-02T22:47:23.349Z,23.08
2023-03-02T22:49:57.754Z,24.23
2023-03-02T22:52:39.345Z,23.98
2023-03-02T22:55:31.174Z,25.40
2023-03-02T22:57:59.619Z,25.15
2023-03-02T23:00:36.859Z,26.23
2023-03-02T23:03:17.936Z,26.00
2023-03-02T23:05:49.366Z,25.00
2023-03-02T23:08:26.046Z,28.05
2023-03-02T23:10:57.735Z,27.02
2023-03-02T23:13:34.602Z,26.00
2023-03-02T23:16:14.576Z,28.17
2023-03-02T23:18:43.798Z,28.60
2023-03-02T23:21:23.379Z,27.15
2023-03-02T23:23:53.701Z,26.88
2023-03-02T23:26:22.439Z,26.25
2023-03-02T23:28:51.853Z,25.67
2023-03-02T23:31:21.318Z,26.67
2023-03-02T23:33:49.938Z,27.48
2023-03-02T23:36:21.097Z,27.17
2023-03-02T23:38:50.197Z,29.60
2023-03-02T23:41:20.099Z,29.35
2023-03-02T23:43:48.640Z,29.45
2023-03-02T23:46:17.307Z,27.35
2023-03-02T23:48:46.127Z,25.75
2023-03-02T23:51:15.020Z,28.83
2023-03-02T23:53:43.560Z,30.73
2023-03-02T23:56:12.836Z,30.42
2023-03-02T23:58:42.675Z,28.73
